Time;durP1;ratioP1;P1;durP2;ratioP2;P2;SDS_P1;SDS_P2;PMS_P1;PMS_P2;Temp;Humidity;BMP_temperature;BMP_pressure;BME280_temperature;BME280_humidity;BME280_pressure;Samples;Min_cycle;Max_cycle;Signal;HPM_P1;HPM_P2
2023/04/09 00:00:23;;;;;;;64.40;29.90;;;;;;;-128.00;-1.00;-1.00;132591;1275;1002531;-73
2023/04/09 00:03:44;;;;;;;64.40;31.20;;;;;;;-128.00;-1.00;-1.00;132522;1275;1002681;-69
2023/04/09 00:06:45;;;;;;;73.30;32.90;;;;;;;-128.00;-1.00;-1.00;132614;1275;1003232;-70
2023/04/09 00:09:46;;;;;;;74.00;36.70;;;;;;;-128.00;-1.00;-1.00;132621;1275;1002621;-71
2023/04/09 00:12:47;;;;;;;71.10;37.70;;;;;;;-128.00;-1.00;-1.00;132621;1275;1002929;-71
2023/04/09 00:15:48;;;;;;;62.90;33.50;;;;;;;-128.00;-1.00;-1.00;132579;1275;1003388;-70
2023/04/09 00:18:49;;;;;;;61.70;32.80;;;;;;;-128.00;-1.00;-1.00;132496;1275;1002562;-71
2023/04/09 00:21:51;;;;;;;64.70;33.80;;;;;;;-128.00;-1.00;-1.00;132496;1275;1003212;-69
2023/04/09 00:24:52;;;;;;;70.20;36.10;;;;;;;-128.00;-1.00;-1.00;132504;1275;1002939;-71
2023/04/09 00:27:53;;;;;;;72.40;38.50;;;;;;;-128.00;-1.00;-1.00;132598;1275;1003109;-72
2023/04/09 00:30:54;;;;;;;62.90;34.80;;;;;;;-128.00;-1.00;-1.00;132571;1260;1002941;-72
2023/04/09 00:33:55;;;;;;;68.90;35.70;;;;;;;-128.00;-1.00;-1.00;132542;1275;1002826;-72
2023/04/09 00:36:56;;;;;;;63.70;33.90;;;;;;;-128.00;-1.00;-1.00;132545;1275;1002588;-72
2023/04/09 00:39:57;;;;;;;63.00;34.00;;;;;;;-128.00;-1.00;-1.00;132558;1275;1002910;-72
2023/04/09 00:42:58;;;;;;;58.40;30.40;;;;;;;-128.00;-1.00;-1.00;132559;1275;1004210;-73
2023/04/09 00:45:59;;;;;;;60.50;31.60;;;;;;;-128.00;-1.00;-1.00;132557;1275;1003232;-72
2023/04/09 00:49:00;;;;;;;60.40;31.20;;;;;;;-128.00;-1.00;-1.00;132612;1275;1004311;-72
2023/04/09 00:52:01;;;;;;;64.50;32.60;;;;;;;-128.00;-1.00;-1.00;132590;1275;1002264;-72
2023/04/09 00:55:02;;;;;;;61.90;31.20;;;;;;;-128.00;-1.00;-1.00;132583;1275;1002675;-72
2023/04/09 00:58:03;;;;;;;63.90;32.80;;;;;;;-128.00;-1.00;-1.00;132602;1275;1002523;-71
2023/04/09 01:01:04;;;;;;;58.50;31.70;;;;;;;-128.00;-1.00;-1.00;132523;1275;1003239;-72
2023/04/09 01:04:05;;;;;;;57.50;30.60;;;;;;;-128.00;-1.00;-1.00;132524;1275;1002989;-72
2023/04/09 01:07:06;;;;;;;60.10;31.50;;;;;;;-128.00;-1.00;-1.00;132521;1275;1002523;-72
2023/04/09 01:10:07;;;;;;;62.30;32.50;;;;;;;-128.00;-1.00;-1.00;132582;1275;1002419;-72
2023/04/09 01:13:08;;;;;;;59.60;32.00;;;;;;;-128.00;-1.00;-1.00;132555;1275;1002805;-70
2023/04/09 01:16:09;;;;;;;67.60;33.00;;;;;;;-128.00;-1.00;-1.00;132580;1275;1002384;-72
2023/04/09 01:19:10;;;;;;;68.20;31.50;;;;;;;-128.00;-1.00;-1.00;132575;1275;1002709;-72
2023/04/09 01:22:11;;;;;;;68.50;33.00;;;;;;;-128.00;-1.00;-1.00;132484;1275;1003680;-72
2023/04/09 01:25:12;;;;;;;64.30;31.10;;;;;;;-128.00;-1.00;-1.00;132575;1275;1002811;-71
2023/04/09 01:28:13;;;;;;;64.70;31.30;;;;;;;-128.00;-1.00;-1.00;132593;1275;1004134;-72
2023/04/09 01:31:14;;;;;;;65.10;33.60;;;;;;;-128.00;-1.00;-1.00;132582;1275;1002959;-71
2023/04/09 01:34:15;;;;;;;66.70;35.50;;;;;;;-128.00;-1.00;-1.00;132585;1275;1002672;-72
2023/04/09 01:37:16;;;;;;;68.30;33.80;;;;;;;-128.00;-1.00;-1.00;132592;1275;1002549;-71
2023/04/09 01:40:17;;;;;;;67.60;35.40;;;;;;;-128.00;-1.00;-1.00;132538;1275;1004670;-72
2023/04/09 01:43:17;;;;;;;66.20;34.40;;;;;;;-128.00;-1.00;-1.00;132529;1275;1002475;-72
2023/04/09 01:46:18;;;;;;;68.80;36.10;;;;;;;-128.00;-1.00;-1.00;132571;1275;1003262;-70
2023/04/09 01:49:19;;;;;;;75.90;36.80;;;;;;;-128.00;-1.00;-1.00;132557;1260;1003402;-71
2023/04/09 01:52:20;;;;;;;64.60;32.40;;;;;;;-128.00;-1.00;-1.00;132586;1275;1002526;-72
2023/04/09 01:55:21;;;;;;;72.90;34.90;;;;;;;-128.00;-1.00;-1.00;132568;1275;1003292;-71
2023/04/09 01:58:22;;;;;;;76.80;36.70;;;;;;;-128.00;-1.00;-1.00;132575;1275;1002704;-71
2023/04/09 02:01:23;;;;;;;80.40;37.70;;;;;;;-128.00;-1.00;-1.00;132530;1275;1002716;-71
2023/04/09 02:04:24;;;;;;;78.20;38.30;;;;;;;-128.00;-1.00;-1.00;132534;1275;1001834;-71
2023/04/09 02:07:25;;;;;;;80.70;38.90;;;;;;;-128.00;-1.00;-1.00;132436;1275;1002548;-71
2023/04/09 02:10:26;;;;;;;85.10;41.30;;;;;;;-128.00;-1.00;-1.00;132631;1275;1002809;-71
2023/04/09 02:13:27;;;;;;;90.90;42.40;;;;;;;-128.00;-1.00;-1.00;132595;1275;1002576;-71
2023/04/09 02:16:28;;;;;;;79.30;39.30;;;;;;;-128.00;-1.00;-1.00;132570;1275;1004032;-71
2023/04/09 02:19:29;;;;;;;84.80;42.80;;;;;;;-128.00;-1.00;-1.00;132545;1275;1002821;-72
2023/04/09 02:22:30;;;;;;;75.40;39.40;;;;;;;-128.00;-1.00;-1.00;132456;1275;1003793;-71
2023/04/09 02:25:31;;;;;;;87.70;44.60;;;;;;;-128.00;-1.00;-1.00;132614;1275;1002809;-71
2023/04/09 02:28:32;;;;;;;88.80;44.60;;;;;;;-128.00;-1.00;-1.00;132606;1275;1003317;-71
2023/04/09 02:31:33;;;;;;;99.30;47.00;;;;;;;-128.00;-1.00;-1.00;132581;1275;1002611;-71
2023/04/09 02:34:34;;;;;;;88.90;43.00;;;;;;;-128.00;-1.00;-1.00;132596;1275;1002801;-72
2023/04/09 02:37:35;;;;;;;72.20;35.60;;;;;;;-128.00;-1.00;-1.00;132557;1275;1003093;-71
2023/04/09 02:40:36;;;;;;;85.10;40.30;;;;;;;-128.00;-1.00;-1.00;132525;1275;1002797;-70
2023/04/09 02:43:37;;;;;;;79.40;38.40;;;;;;;-128.00;-1.00;-1.00;132534;1275;1002603;-69
2023/04/09 02:46:38;;;;;;;88.60;43.00;;;;;;;-128.00;-1.00;-1.00;132579;1275;1002697;-70
2023/04/09 02:49:39;;;;;;;77.80;40.10;;;;;;;-128.00;-1.00;-1.00;132548;1275;1002114;-70
2023/04/09 02:52:40;;;;;;;78.50;39.00;;;;;;;-128.00;-1.00;-1.00;132608;1275;1003257;-72
2023/04/09 02:55:41;;;;;;;73.20;38.70;;;;;;;-128.00;-1.00;-1.00;132555;1275;1002801;-70
2023/04/09 02:58:42;;;;;;;75.60;37.20;;;;;;;-128.00;-1.00;-1.00;132617;1275;1002426;-70
2023/04/09 03:01:43;;;;;;;73.40;38.60;;;;;;;-128.00;-1.00;-1.00;132452;1275;1002882;-70
2023/04/09 03:04:44;;;;;;;73.40;36.30;;;;;;;-128.00;-1.00;-1.00;132608;1275;1002754;-70
2023/04/09 03:07:46;;;;;;;70.70;36.70;;;;;;;-128.00;-1.00;-1.00;132572;1275;1002771;-71
2023/04/09 03:10:47;;;;;;;71.30;37.00;;;;;;;-128.00;-1.00;-1.00;132523;1275;1004374;-71
2023/04/09 03:13:48;;;;;;;68.90;35.10;;;;;;;-128.00;-1.00;-1.00;132534;1275;1004729;-70
2023/04/09 03:16:49;;;;;;;66.70;33.50;;;;;;;-128.00;-1.00;-1.00;132638;1275;1002660;-72
2023/04/09 03:19:50;;;;;;;62.80;31.60;;;;;;;-128.00;-1.00;-1.00;132591;1275;1003291;-72
2023/04/09 03:22:51;;;;;;;61.10;32.90;;;;;;;-128.00;-1.00;-1.00;132589;1275;1002201;-71
2023/04/09 03:25:52;;;;;;;62.70;31.40;;;;;;;-128.00;-1.00;-1.00;132583;1275;1002801;-70
2023/04/09 03:28:53;;;;;;;61.00;32.30;;;;;;;-128.00;-1.00;-1.00;132615;1275;1002990;-69
2023/04/09 03:31:54;;;;;;;66.10;33.30;;;;;;;-128.00;-1.00;-1.00;132630;1275;1002994;-71
2023/04/09 03:34:55;;;;;;;63.10;31.80;;;;;;;-128.00;-1.00;-1.00;132618;1275;1002667;-71
2023/04/09 03:37:56;;;;;;;66.50;34.30;;;;;;;-128.00;-1.00;-1.00;132611;1275;1002754;-71
2023/04/09 03:40:57;;;;;;;67.20;34.70;;;;;;;-128.00;-1.00;-1.00;132480;1275;1002442;-70
2023/04/09 03:43:58;;;;;;;69.90;36.20;;;;;;;-128.00;-1.00;-1.00;132604;1275;1002753;-71
2023/04/09 03:46:59;;;;;;;67.30;36.70;;;;;;;-128.00;-1.00;-1.00;132547;1275;1002813;-70
2023/04/09 03:50:00;;;;;;;68.00;34.30;;;;;;;-128.00;-1.00;-1.00;132499;1275;1002649;-71
2023/04/09 03:53:01;;;;;;;65.10;34.10;;;;;;;-128.00;-1.00;-1.00;132498;1275;1003450;-70
2023/04/09 03:56:02;;;;;;;67.80;35.30;;;;;;;-128.00;-1.00;-1.00;132481;1260;1002581;-70
2023/04/09 03:59:03;;;;;;;66.40;34.50;;;;;;;-128.00;-1.00;-1.00;132465;1275;1002783;-71
2023/04/09 04:02:04;;;;;;;64.30;34.60;;;;;;;-128.00;-1.00;-1.00;132555;1275;1003257;-70
2023/04/09 04:05:05;;;;;;;67.40;36.20;;;;;;;-128.00;-1.00;-1.00;132605;1275;1003052;-71
2023/04/09 04:08:06;;;;;;;56.00;29.90;;;;;;;-128.00;-1.00;-1.00;132570;1275;1002694;-71
2023/04/09 04:11:06;;;;;;;59.00;25.00;;;;;;;-128.00;-1.00;-1.00;132623;1275;1002504;-71
2023/04/09 04:14:07;;;;;;;49.10;25.30;;;;;;;-128.00;-1.00;-1.00;132603;1275;1002516;-72
2023/04/09 04:17:08;;;;;;;53.00;27.10;;;;;;;-128.00;-1.00;-1.00;132619;1275;1002598;-71
2023/04/09 04:20:09;;;;;;;54.90;27.70;;;;;;;-128.00;-1.00;-1.00;132538;1275;1002371;-71
2023/04/09 04:23:10;;;;;;;51.70;26.70;;;;;;;-128.00;-1.00;-1.00;132590;1275;1003257;-71
2023/04/09 04:26:11;;;;;;;47.30;25.50;;;;;;;-128.00;-1.00;-1.00;132587;1275;1005014;-71
2023/04/09 04:29:12;;;;;;;65.70;26.80;;;;;;;-128.00;-1.00;-1.00;132626;1275;1002704;-70
2023/04/09 04:32:13;;;;;;;65.90;26.70;;;;;;;-128.00;-1.00;-1.00;132542;1275;1002840;-70
2023/04/09 04:35:14;;;;;;;73.00;28.10;;;;;;;-128.00;-1.00;-1.00;132573;1275;1002769;-71
2023/04/09 04:38:15;;;;;;;61.70;28.60;;;;;;;-128.00;-1.00;-1.00;132556;1275;1003131;-71
2023/04/09 04:41:16;;;;;;;60.90;28.60;;;;;;;-128.00;-1.00;-1.00;132560;1275;1003053;-70
2023/04/09 04:44:17;;;;;;;52.90;26.00;;;;;;;-128.00;-1.00;-1.00;132604;1275;1002720;-70
2023/04/09 04:47:18;;;;;;;49.50;26.00;;;;;;;-128.00;-1.00;-1.00;132567;1275;1003064;-71
2023/04/09 04:50:19;;;;;;;49.80;25.20;;;;;;;-128.00;-1.00;-1.00;132579;1275;1002928;-71
2023/04/09 04:53:20;;;;;;;48.50;25.80;;;;;;;-128.00;-1.00;-1.00;132656;1275;1002992;-71
2023/04/09 04:56:21;;;;;;;52.40;27.30;;;;;;;-128.00;-1.00;-1.00;132604;1275;1002805;-71
2023/04/09 04:59:22;;;;;;;58.60;29.40;;;;;;;-128.00;-1.00;-1.00;132483;1275;1003686;-71
2023/04/09 05:02:23;;;;;;;67.00;33.80;;;;;;;-128.00;-1.00;-1.00;132601;1275;1002402;-70
2023/04/09 05:05:24;;;;;;;67.20;34.90;;;;;;;-128.00;-1.00;-1.00;132622;1275;1003169;-71
2023/04/09 05:08:25;;;;;;;62.70;32.90;;;;;;;-128.00;-1.00;-1.00;132566;1275;1002455;-70
2023/04/09 05:11:26;;;;;;;57.90;30.20;;;;;;;-128.00;-1.00;-1.00;132582;1275;1002806;-71
2023/04/09 05:14:27;;;;;;;49.50;25.90;;;;;;;-128.00;-1.00;-1.00;132568;1275;1002971;-69
2023/04/09 05:17:28;;;;;;;51.30;27.90;;;;;;;-128.00;-1.00;-1.00;132593;1275;1003172;-71
2023/04/09 05:20:29;;;;;;;48.60;25.60;;;;;;;-128.00;-1.00;-1.00;132514;1275;1002860;-71
2023/04/09 05:23:30;;;;;;;60.70;31.10;;;;;;;-128.00;-1.00;-1.00;132561;1275;1002611;-71
2023/04/09 05:26:31;;;;;;;56.30;29.20;;;;;;;-128.00;-1.00;-1.00;132616;1261;1003984;-71
2023/04/09 05:29:32;;;;;;;60.00;30.90;;;;;;;-128.00;-1.00;-1.00;132567;1275;1002933;-71
2023/04/09 05:32:33;;;;;;;55.70;28.10;;;;;;;-128.00;-1.00;-1.00;132613;1275;1003186;-71
2023/04/09 05:35:34;;;;;;;61.60;32.00;;;;;;;-128.00;-1.00;-1.00;132549;1275;1002617;-71
2023/04/09 05:38:35;;;;;;;65.40;33.40;;;;;;;-128.00;-1.00;-1.00;132509;1275;1002541;-71
2023/04/09 05:41:37;;;;;;;61.00;34.10;;;;;;;-128.00;-1.00;-1.00;132507;1275;1003070;-71
2023/04/09 05:44:38;;;;;;;54.70;29.60;;;;;;;-128.00;-1.00;-1.00;132554;1275;1002945;-70
2023/04/09 05:47:39;;;;;;;52.60;26.50;;;;;;;-128.00;-1.00;-1.00;132556;1275;1003035;-71
2023/04/09 05:50:40;;;;;;;54.80;29.20;;;;;;;-128.00;-1.00;-1.00;132577;1275;1002412;-71
2023/04/09 05:53:41;;;;;;;51.40;28.20;;;;;;;-128.00;-1.00;-1.00;132549;1275;1002584;-72
2023/04/09 05:56:42;;;;;;;51.40;27.40;;;;;;;-128.00;-1.00;-1.00;132585;1275;1002625;-72
2023/04/09 05:59:43;;;;;;;51.10;27.20;;;;;;;-128.00;-1.00;-1.00;132477;1275;1002593;-71
2023/04/09 06:02:44;;;;;;;54.00;27.90;;;;;;;-128.00;-1.00;-1.00;132607;1275;1002421;-70
2023/04/09 06:05:45;;;;;;;48.90;26.10;;;;;;;-128.00;-1.00;-1.00;132565;1275;1002676;-71
2023/04/09 06:08:46;;;;;;;45.30;23.80;;;;;;;-128.00;-1.00;-1.00;132565;1275;1003342;-71
2023/04/09 06:11:47;;;;;;;45.80;23.50;;;;;;;-128.00;-1.00;-1.00;132591;1275;1002482;-71
2023/04/09 06:14:48;;;;;;;48.40;24.20;;;;;;;-128.00;-1.00;-1.00;132587;1275;1002828;-70
2023/04/09 06:17:49;;;;;;;46.20;22.80;;;;;;;-128.00;-1.00;-1.00;132556;1275;1003164;-71
2023/04/09 06:20:50;;;;;;;42.10;20.90;;;;;;;-128.00;-1.00;-1.00;132528;1275;1002653;-72
2023/04/09 06:23:52;;;;;;;41.30;21.60;;;;;;;-128.00;-1.00;-1.00;132566;1275;1002554;-71
2023/04/09 06:26:53;;;;;;;41.60;21.80;;;;;;;-128.00;-1.00;-1.00;132579;1275;1002925;-71
2023/04/09 06:29:54;;;;;;;40.50;19.90;;;;;;;-128.00;-1.00;-1.00;132520;1275;1002550;-71
2023/04/09 06:32:55;;;;;;;41.70;20.20;;;;;;;-128.00;-1.00;-1.00;132596;1275;1002666;-71
2023/04/09 06:35:56;;;;;;;44.20;21.30;;;;;;;-128.00;-1.00;-1.00;132537;1275;1004133;-71
2023/04/09 06:38:57;;;;;;;42.70;21.60;;;;;;;-128.00;-1.00;-1.00;132513;1275;1003173;-71
2023/04/09 06:41:58;;;;;;;41.30;21.30;;;;;;;-128.00;-1.00;-1.00;132541;1275;1002327;-68
2023/04/09 06:44:59;;;;;;;39.50;20.90;;;;;;;-128.00;-1.00;-1.00;132532;1275;1002772;-68
2023/04/09 06:48:01;;;;;;;40.40;21.80;;;;;;;-128.00;-1.00;-1.00;132570;1275;1003954;-71
2023/04/09 06:51:02;;;;;;;46.50;26.90;;;;;;;-128.00;-1.00;-1.00;132534;1275;1002602;-71
2023/04/09 06:54:03;;;;;;;62.80;33.20;;;;;;;-128.00;-1.00;-1.00;132576;1275;1002504;-71
2023/04/09 06:57:04;;;;;;;42.50;21.60;;;;;;;-128.00;-1.00;-1.00;132585;1275;1002554;-71
2023/04/09 07:00:05;;;;;;;35.90;18.30;;;;;;;-128.00;-1.00;-1.00;132527;1275;1002760;-70
2023/04/09 07:03:07;;;;;;;35.50;18.20;;;;;;;-128.00;-1.00;-1.00;132603;1275;1002581;-71
2023/04/09 07:06:09;;;;;;;37.50;19.50;;;;;;;-128.00;-1.00;-1.00;132588;1275;1002465;-70
2023/04/09 07:09:10;;;;;;;38.30;19.10;;;;;;;-128.00;-1.00;-1.00;132561;1275;1002694;-69
2023/04/09 07:12:11;;;;;;;36.90;19.00;;;;;;;-128.00;-1.00;-1.00;132571;1275;1002087;-70
2023/04/09 07:15:12;;;;;;;42.60;21.10;;;;;;;-128.00;-1.00;-1.00;132588;1275;1003044;-70
2023/04/09 07:18:13;;;;;;;41.70;21.60;;;;;;;-128.00;-1.00;-1.00;132508;1275;1004545;-69
2023/04/09 07:21:15;;;;;;;39.60;20.10;;;;;;;-128.00;-1.00;-1.00;132531;1275;1002539;-70
2023/04/09 07:24:16;;;;;;;45.00;22.40;;;;;;;-128.00;-1.00;-1.00;132531;1275;1002671;-70
2023/04/09 07:27:17;;;;;;;42.80;22.80;;;;;;;-128.00;-1.00;-1.00;132533;1275;1002754;-71
2023/04/09 07:30:18;;;;;;;40.10;20.80;;;;;;;-128.00;-1.00;-1.00;132579;1275;1002613;-71
2023/04/09 07:33:19;;;;;;;39.00;19.30;;;;;;;-128.00;-1.00;-1.00;132603;1275;1002341;-71
2023/04/09 07:36:20;;;;;;;38.40;19.80;;;;;;;-128.00;-1.00;-1.00;132590;1275;1002563;-71
2023/04/09 07:39:21;;;;;;;39.60;21.60;;;;;;;-128.00;-1.00;-1.00;132581;1275;1002815;-71
2023/04/09 07:42:22;;;;;;;41.20;20.80;;;;;;;-128.00;-1.00;-1.00;132602;1274;1003386;-70
2023/04/09 07:45:23;;;;;;;42.10;21.10;;;;;;;-128.00;-1.00;-1.00;132593;1275;1002541;-72
2023/04/09 07:48:24;;;;;;;39.10;20.30;;;;;;;-128.00;-1.00;-1.00;132604;1275;1002336;-71
2023/04/09 07:51:25;;;;;;;40.20;21.40;;;;;;;-128.00;-1.00;-1.00;132605;1275;1002562;-72
2023/04/09 07:54:27;;;;;;;41.40;21.20;;;;;;;-128.00;-1.00;-1.00;132630;1275;1002812;-72
2023/04/09 07:57:28;;;;;;;40.70;21.00;;;;;;;-128.00;-1.00;-1.00;132583;1275;1002450;-72
2023/04/09 08:00:29;;;;;;;38.00;19.30;;;;;;;-128.00;-1.00;-1.00;132566;1275;1002976;-72
2023/04/09 08:03:30;;;;;;;39.20;18.90;;;;;;;-128.00;-1.00;-1.00;132627;1275;1002491;-71
2023/04/09 08:06:31;;;;;;;39.40;20.60;;;;;;;-128.00;-1.00;-1.00;132574;1254;1002138;-71
2023/04/09 08:09:32;;;;;;;38.80;19.40;;;;;;;-128.00;-1.00;-1.00;132595;1275;1002824;-71
2023/04/09 08:12:33;;;;;;;37.50;19.40;;;;;;;-128.00;-1.00;-1.00;132587;1275;1003152;-71
2023/04/09 08:15:34;;;;;;;43.70;22.20;;;;;;;-128.00;-1.00;-1.00;132579;1275;1002490;-72
2023/04/09 08:18:35;;;;;;;42.00;21.40;;;;;;;-128.00;-1.00;-1.00;132581;1275;1002856;-71
2023/04/09 08:21:36;;;;;;;37.80;20.30;;;;;;;-128.00;-1.00;-1.00;132597;1275;1002776;-71
2023/04/09 08:24:39;;;;;;;37.20;19.20;;;;;;;-128.00;-1.00;-1.00;132605;1275;1003878;-72
2023/04/09 08:27:40;;;;;;;36.70;19.00;;;;;;;-128.00;-1.00;-1.00;132581;1275;1004108;-72
2023/04/09 08:30:41;;;;;;;37.80;20.80;;;;;;;-128.00;-1.00;-1.00;132606;1275;1002663;-71
2023/04/09 08:33:42;;;;;;;36.30;18.60;;;;;;;-128.00;-1.00;-1.00;132641;1275;1002440;-72
2023/04/09 08:36:43;;;;;;;36.20;18.20;;;;;;;-128.00;-1.00;-1.00;132493;1275;1002994;-71
2023/04/09 08:39:44;;;;;;;33.60;17.90;;;;;;;-128.00;-1.00;-1.00;132604;1275;1002663;-69
2023/04/09 08:42:45;;;;;;;34.50;18.20;;;;;;;-128.00;-1.00;-1.00;132577;1253;1002495;-71
2023/04/09 08:45:46;;;;;;;32.40;16.80;;;;;;;-128.00;-1.00;-1.00;132629;1275;1004719;-70
2023/04/09 08:48:47;;;;;;;33.10;16.70;;;;;;;-128.00;-1.00;-1.00;132562;1275;1002985;-71
2023/04/09 08:51:48;;;;;;;32.40;16.60;;;;;;;-128.00;-1.00;-1.00;132599;1275;1003287;-71
2023/04/09 08:54:49;;;;;;;32.10;17.00;;;;;;;-128.00;-1.00;-1.00;132545;1275;1002542;-71
2023/04/09 08:57:50;;;;;;;34.70;17.70;;;;;;;-128.00;-1.00;-1.00;132623;1275;1002795;-70
2023/04/09 09:00:51;;;;;;;36.40;20.30;;;;;;;-128.00;-1.00;-1.00;132609;1275;1002955;-70
2023/04/09 09:03:52;;;;;;;33.40;18.20;;;;;;;-128.00;-1.00;-1.00;132668;1275;1002628;-72
2023/04/09 09:06:53;;;;;;;33.70;17.90;;;;;;;-128.00;-1.00;-1.00;132673;1275;1003477;-73
2023/04/09 09:09:54;;;;;;;32.70;16.80;;;;;;;-128.00;-1.00;-1.00;132639;1275;1003143;-72
2023/04/09 09:12:55;;;;;;;35.00;18.10;;;;;;;-128.00;-1.00;-1.00;132585;1275;1002582;-72
2023/04/09 09:15:57;;;;;;;31.70;16.40;;;;;;;-128.00;-1.00;-1.00;132520;1275;1002646;-70
2023/04/09 09:18:58;;;;;;;32.50;16.30;;;;;;;-128.00;-1.00;-1.00;132640;1275;1002810;-72
2023/04/09 09:22:00;;;;;;;30.20;15.80;;;;;;;-128.00;-1.00;-1.00;132560;1275;1002699;-71
2023/04/09 09:25:01;;;;;;;33.20;16.80;;;;;;;-128.00;-1.00;-1.00;132626;1275;1002692;-71
2023/04/09 09:28:02;;;;;;;31.90;16.40;;;;;;;-128.00;-1.00;-1.00;132637;1275;1002654;-73
2023/04/09 09:31:03;;;;;;;30.50;16.40;;;;;;;-128.00;-1.00;-1.00;132593;1275;1002731;-72
2023/04/09 09:34:04;;;;;;;32.00;16.60;;;;;;;-128.00;-1.00;-1.00;132535;1257;1002773;-72
2023/04/09 09:37:05;;;;;;;29.00;14.80;;;;;;;-128.00;-1.00;-1.00;132638;1275;1004051;-72
2023/04/09 09:40:06;;;;;;;29.80;15.10;;;;;;;-128.00;-1.00;-1.00;132610;1275;1002740;-73
2023/04/09 09:43:07;;;;;;;30.50;16.30;;;;;;;-128.00;-1.00;-1.00;132674;1275;1003072;-71
2023/04/09 09:46:08;;;;;;;29.70;14.70;;;;;;;-128.00;-1.00;-1.00;132640;1275;1002281;-72
2023/04/09 09:49:09;;;;;;;29.80;15.90;;;;;;;-128.00;-1.00;-1.00;132647;1275;1002350;-73
2023/04/09 09:52:12;;;;;;;31.10;15.90;;;;;;;-128.00;-1.00;-1.00;132653;1275;1002832;-73
2023/04/09 09:55:13;;;;;;;30.30;15.30;;;;;;;-128.00;-1.00;-1.00;132553;1275;1002915;-72
2023/04/09 09:58:14;;;;;;;30.20;15.40;;;;;;;-128.00;-1.00;-1.00;132626;1275;1002660;-72
2023/04/09 10:01:15;;;;;;;27.40;13.80;;;;;;;-128.00;-1.00;-1.00;132594;1275;1002099;-72
2023/04/09 10:04:17;;;;;;;28.60;14.10;;;;;;;-128.00;-1.00;-1.00;132578;1275;1002699;-73
2023/04/09 10:07:18;;;;;;;28.50;14.00;;;;;;;-128.00;-1.00;-1.00;132595;1275;1002932;-71
2023/04/09 10:10:19;;;;;;;28.70;14.60;;;;;;;-128.00;-1.00;-1.00;132599;1275;1004884;-72
2023/04/09 10:13:20;;;;;;;28.40;14.30;;;;;;;-128.00;-1.00;-1.00;132563;1275;1002706;-67
2023/04/09 10:16:22;;;;;;;28.10;13.80;;;;;;;-128.00;-1.00;-1.00;132604;1275;1002632;-72
2023/04/09 10:19:23;;;;;;;28.00;14.40;;;;;;;-128.00;-1.00;-1.00;132637;1275;1002550;-69
2023/04/09 10:22:24;;;;;;;28.70;13.80;;;;;;;-128.00;-1.00;-1.00;132655;1275;1003469;-71
2023/04/09 10:25:25;;;;;;;27.30;13.60;;;;;;;-128.00;-1.00;-1.00;132658;1275;1002540;-70
2023/04/09 10:28:26;;;;;;;27.00;13.30;;;;;;;-128.00;-1.00;-1.00;132614;1275;1002369;-72
2023/04/09 10:31:27;;;;;;;28.20;13.00;;;;;;;-128.00;-1.00;-1.00;132631;1275;1003205;-73
2023/04/09 10:34:28;;;;;;;27.50;13.40;;;;;;;-128.00;-1.00;-1.00;132568;1275;1004144;-68
2023/04/09 10:37:30;;;;;;;27.00;12.20;;;;;;;-128.00;-1.00;-1.00;132613;1275;1002727;-67
2023/04/09 10:40:31;;;;;;;25.90;12.60;;;;;;;-128.00;-1.00;-1.00;132626;1275;1002772;-69
2023/04/09 10:43:32;;;;;;;25.80;12.90;;;;;;;-128.00;-1.00;-1.00;132595;1275;1002724;-70
2023/04/09 10:46:33;;;;;;;25.90;12.80;;;;;;;-128.00;-1.00;-1.00;132575;1251;1002541;-68
2023/04/09 10:49:34;;;;;;;27.70;13.20;;;;;;;-128.00;-1.00;-1.00;132569;1275;1002747;-70
2023/04/09 10:52:36;;;;;;;26.20;12.00;;;;;;;-128.00;-1.00;-1.00;132533;1275;1004562;-71
2023/04/09 10:55:37;;;;;;;26.10;12.40;;;;;;;-128.00;-1.00;-1.00;132500;1275;1002516;-72
2023/04/09 10:58:38;;;;;;;24.00;11.80;;;;;;;-128.00;-1.00;-1.00;132551;1275;1002966;-70
2023/04/09 11:01:39;;;;;;;21.50;7.90;;;;;;;-128.00;-1.00;-1.00;132600;1275;1002976;-74
2023/04/09 11:04:40;;;;;;;18.90;7.60;;;;;;;-128.00;-1.00;-1.00;132601;1275;1002682;-72
2023/04/09 11:07:41;;;;;;;22.20;9.40;;;;;;;-128.00;-1.00;-1.00;132654;1275;1003174;-73
2023/04/09 11:10:43;;;;;;;21.70;8.90;;;;;;;-128.00;-1.00;-1.00;132643;1275;1003332;-73
2023/04/09 11:13:44;;;;;;;24.00;11.10;;;;;;;-128.00;-1.00;-1.00;132583;1275;1002335;-72
2023/04/09 11:16:45;;;;;;;24.00;10.20;;;;;;;-128.00;-1.00;-1.00;132635;1275;1002985;-73
2023/04/09 11:19:46;;;;;;;24.20;10.40;;;;;;;-128.00;-1.00;-1.00;132611;1275;1002670;-72
2023/04/09 11:22:47;;;;;;;23.10;11.10;;;;;;;-128.00;-1.00;-1.00;132618;1275;1002732;-73
2023/04/09 11:25:48;;;;;;;22.70;10.40;;;;;;;-128.00;-1.00;-1.00;132635;1275;1003711;-73
2023/04/09 11:28:49;;;;;;;22.80;10.80;;;;;;;-128.00;-1.00;-1.00;132679;1275;1002792;-74
2023/04/09 11:31:50;;;;;;;25.90;12.50;;;;;;;-128.00;-1.00;-1.00;132579;1275;1002858;-72
2023/04/09 11:34:51;;;;;;;27.70;13.80;;;;;;;-128.00;-1.00;-1.00;132638;1275;1002910;-73
2023/04/09 11:37:52;;;;;;;27.10;12.80;;;;;;;-128.00;-1.00;-1.00;132663;1275;1002750;-71
2023/04/09 11:40:53;;;;;;;25.10;12.60;;;;;;;-128.00;-1.00;-1.00;132641;1275;1003359;-75
2023/04/09 11:43:54;;;;;;;25.80;11.60;;;;;;;-128.00;-1.00;-1.00;132609;1275;1003054;-73
2023/04/09 11:46:55;;;;;;;25.50;12.30;;;;;;;-128.00;-1.00;-1.00;132668;1275;1002557;-75
2023/04/09 11:49:56;;;;;;;24.90;12.20;;;;;;;-128.00;-1.00;-1.00;132630;1275;1002518;-75
2023/04/09 11:52:57;;;;;;;24.60;11.80;;;;;;;-128.00;-1.00;-1.00;132472;1275;1003002;-75
2023/04/09 11:55:58;;;;;;;24.70;11.40;;;;;;;-128.00;-1.00;-1.00;132644;1254;1002723;-73
2023/04/09 11:58:59;;;;;;;23.60;11.30;;;;;;;-128.00;-1.00;-1.00;132621;1275;1002753;-74
2023/04/09 12:02:01;;;;;;;24.40;11.40;;;;;;;-128.00;-1.00;-1.00;132624;1275;1002540;-74
2023/04/09 12:05:02;;;;;;;25.10;11.30;;;;;;;-128.00;-1.00;-1.00;132624;1275;1003558;-75
2023/04/09 12:08:04;;;;;;;25.10;11.70;;;;;;;-128.00;-1.00;-1.00;132657;1275;1002689;-74
2023/04/09 12:11:05;;;;;;;23.70;11.10;;;;;;;-128.00;-1.00;-1.00;132565;1275;1003001;-73
2023/04/09 12:14:06;;;;;;;24.90;11.50;;;;;;;-128.00;-1.00;-1.00;132570;1275;1003789;-74
2023/04/09 12:17:07;;;;;;;23.40;10.20;;;;;;;-128.00;-1.00;-1.00;132626;1275;1004422;-77
2023/04/09 12:20:08;;;;;;;24.40;11.10;;;;;;;-128.00;-1.00;-1.00;132595;1275;1002385;-75
2023/04/09 12:23:09;;;;;;;26.50;12.00;;;;;;;-128.00;-1.00;-1.00;132623;1275;1002698;-77
2023/04/09 12:26:10;;;;;;;24.20;11.00;;;;;;;-128.00;-1.00;-1.00;132590;1275;1002558;-77
2023/04/09 12:29:11;;;;;;;27.10;12.10;;;;;;;-128.00;-1.00;-1.00;132627;1275;1002686;-77
2023/04/09 12:32:12;;;;;;;24.40;11.10;;;;;;;-128.00;-1.00;-1.00;132506;1275;1002665;-74
2023/04/09 12:35:13;;;;;;;24.10;11.30;;;;;;;-128.00;-1.00;-1.00;132630;1275;1002458;-76
2023/04/09 12:38:14;;;;;;;26.00;12.10;;;;;;;-128.00;-1.00;-1.00;132600;1275;1002979;-77
2023/04/09 12:41:15;;;;;;;25.50;11.40;;;;;;;-128.00;-1.00;-1.00;132654;1275;1002985;-77
2023/04/09 12:44:16;;;;;;;27.30;11.70;;;;;;;-128.00;-1.00;-1.00;132562;1275;1002396;-77
2023/04/09 12:47:18;;;;;;;28.40;12.60;;;;;;;-128.00;-1.00;-1.00;132616;1275;1002751;-77
2023/04/09 12:50:19;;;;;;;27.20;12.30;;;;;;;-128.00;-1.00;-1.00;132635;1275;1002770;-77
2023/04/09 12:53:20;;;;;;;26.40;12.20;;;;;;;-128.00;-1.00;-1.00;132608;1275;1002696;-78
2023/04/09 12:56:21;;;;;;;25.60;11.10;;;;;;;-128.00;-1.00;-1.00;132628;1275;1002586;-78
2023/04/09 12:59:22;;;;;;;26.00;11.90;;;;;;;-128.00;-1.00;-1.00;132580;1275;1002781;-77
2023/04/09 13:02:23;;;;;;;31.70;16.40;;;;;;;-128.00;-1.00;-1.00;132643;1275;1004548;-76
2023/04/09 13:05:24;;;;;;;32.20;16.10;;;;;;;-128.00;-1.00;-1.00;132631;1275;1003755;-76
2023/04/09 13:08:25;;;;;;;31.10;14.90;;;;;;;-128.00;-1.00;-1.00;132657;1275;1002899;-75
2023/04/09 13:11:26;;;;;;;34.10;16.70;;;;;;;-128.00;-1.00;-1.00;132566;1275;1002730;-75
2023/04/09 13:14:27;;;;;;;29.50;11.90;;;;;;;-128.00;-1.00;-1.00;132682;1275;1002494;-76
2023/04/09 13:17:28;;;;;;;25.30;10.50;;;;;;;-128.00;-1.00;-1.00;132643;1275;1002649;-77
2023/04/09 13:20:29;;;;;;;35.00;17.40;;;;;;;-128.00;-1.00;-1.00;132566;1260;1002662;-77
2023/04/09 13:23:30;;;;;;;36.10;21.50;;;;;;;-128.00;-1.00;-1.00;132626;1275;1003045;-76
2023/04/09 13:26:31;;;;;;;24.40;10.10;;;;;;;-128.00;-1.00;-1.00;132630;1275;1002840;-77
2023/04/09 13:29:32;;;;;;;22.90;9.50;;;;;;;-128.00;-1.00;-1.00;132632;1275;1002743;-77
2023/04/09 13:32:33;;;;;;;30.70;13.20;;;;;;;-128.00;-1.00;-1.00;132614;1275;1002926;-77